Time;durP1;ratioP1;P1;durP2;ratioP2;P2;SDS_P1;SDS_P2;PMS_P1;PMS_P2;Temp;Humidity;BMP_temperature;BMP_pressure;BME280_temperature;BME280_humidity;BME280_pressure;Samples;Min_cycle;Max_cycle;Signal;HPM_P1;HPM_P2
2023/02/16 00:01:23;;;;;;;32.08;18.13;;;4.80;99.90;;;;;;5051923;28;20053;-40
2023/02/16 00:03:50;;;;;;;34.42;18.23;;;4.80;99.90;;;;;;5052285;28;20032;-40
2023/02/16 00:06:16;;;;;;;36.03;19.40;;;4.80;99.90;;;;;;5050846;28;20032;-40
2023/02/16 00:08:47;;;;;;;32.88;18.75;;;4.80;99.90;;;;;;5052177;28;20016;-39
2023/02/16 00:13:57;;;;;;;32.10;18.52;;;4.80;99.90;;;;;;5052289;28;19911;-40
2023/02/16 00:16:24;;;;;;;35.03;20.17;;;4.80;99.90;;;;;;5052227;28;20365;-40
2023/02/16 00:18:50;;;;;;;34.13;19.05;;;4.80;99.90;;;;;;5052233;28;20028;-40
2023/02/16 00:21:17;;;;;;;35.47;18.50;;;4.80;99.90;;;;;;5051169;28;20439;-40
2023/02/16 00:23:43;;;;;;;38.80;19.05;;;4.80;99.90;;;;;;5052010;28;20052;-39
2023/02/16 00:26:16;;;;;;;36.80;19.83;;;4.80;99.90;;;;;;5051937;28;20056;-40
2023/02/16 00:28:42;;;;;;;37.35;20.10;;;4.80;99.90;;;;;;5051968;28;20477;-40
2023/02/16 00:31:16;;;;;;;35.58;19.70;;;4.80;99.90;;;;;;5051530;28;20021;-40
2023/02/16 00:33:41;;;;;;;34.60;19.45;;;4.80;99.90;;;;;;5052329;28;20032;-40
2023/02/16 00:36:07;;;;;;;35.10;19.30;;;4.90;99.90;;;;;;5051691;28;20441;-41
2023/02/16 00:38:33;;;;;;;37.45;19.80;;;4.90;99.90;;;;;;5051334;28;20068;-39
2023/02/16 00:40:58;;;;;;;36.92;18.85;;;4.90;99.90;;;;;;5066497;28;20415;-39
2023/02/16 00:43:27;;;;;;;37.33;20.20;;;4.90;99.90;;;;;;5052184;28;20036;-40
2023/02/16 00:45:53;;;;;;;35.17;19.42;;;4.90;99.90;;;;;;5051912;28;20036;-40
2023/02/16 00:48:20;;;;;;;34.20;19.55;;;5.00;99.90;;;;;;5051685;28;20021;-40
2023/02/16 00:50:45;;;;;;;38.53;20.23;;;5.00;99.90;;;;;;5051664;28;20021;-39
2023/02/16 00:53:11;;;;;;;38.70;19.63;;;5.00;99.90;;;;;;5051712;28;20043;-39
2023/02/16 00:55:38;;;;;;;35.75;19.40;;;4.90;99.90;;;;;;5051765;28;20369;-40
2023/02/16 00:58:03;;;;;;;40.30;20.77;;;4.90;99.90;;;;;;5051599;28;20029;-40
2023/02/16 01:00:36;;;;;;;41.80;22.58;;;4.90;99.90;;;;;;5051706;28;20082;-40
2023/02/16 01:03:06;;;;;;;35.40;19.67;;;4.90;99.90;;;;;;5066300;28;20025;-40
2023/02/16 01:05:31;;;;;;;39.45;21.13;;;4.90;99.90;;;;;;5051604;28;20333;-40
2023/02/16 01:13:43;;;;;;;40.55;19.30;;;4.90;99.90;;;;;;5022266;28;20080;-40
2023/02/16 01:16:21;;;;;;;38.47;20.17;;;5.00;99.90;;;;;;5031202;28;20021;-40
2023/02/16 01:18:48;;;;;;;37.03;19.88;;;5.10;99.90;;;;;;5031118;28;20556;-40
2023/02/16 01:21:13;;;;;;;33.47;19.38;;;5.10;99.90;;;;;;5030547;28;20467;-41
2023/02/16 01:23:39;;;;;;;39.70;22.10;;;5.00;99.90;;;;;;5037115;28;20029;-40
2023/02/16 01:26:11;;;;;;;40.28;20.35;;;5.00;99.90;;;;;;5051338;28;20615;-40
2023/02/16 01:28:36;;;;;;;43.53;21.13;;;5.00;99.90;;;;;;5066225;28;20026;-41
2023/02/16 01:31:02;;;;;;;44.58;23.83;;;5.00;99.90;;;;;;5050214;28;20021;-41
2023/02/16 01:33:28;;;;;;;37.88;20.15;;;5.00;99.90;;;;;;5050683;28;20025;-41
2023/02/16 01:35:55;;;;;;;39.90;21.15;;;5.00;99.90;;;;;;5050484;28;20029;-40
2023/02/16 01:38:25;;;;;;;40.65;21.20;;;4.90;99.90;;;;;;5050346;28;20024;-41
2023/02/16 01:41:28;;;;;;;44.00;21.90;;;4.90;99.90;;;;;;5050649;28;20017;-40
2023/02/16 01:44:04;;;;;;;42.28;21.42;;;4.90;99.90;;;;;;5050367;28;20048;-40
2023/02/16 01:46:42;;;;;;;39.72;20.05;;;5.00;99.90;;;;;;5050560;28;20220;-40
2023/02/16 01:49:16;;;;;;;40.53;20.70;;;4.90;99.90;;;;;;5050716;28;20017;-41
2023/02/16 01:52:01;;;;;;;42.22;21.58;;;4.90;99.90;;;;;;5049793;28;20013;-40
2023/02/16 01:54:38;;;;;;;41.15;21.88;;;4.90;99.90;;;;;;5050615;28;20083;-40
2023/02/16 01:57:18;;;;;;;39.97;22.05;;;4.90;99.90;;;;;;5050782;28;20035;-40
2023/02/16 01:59:43;;;;;;;41.60;21.55;;;4.90;99.90;;;;;;5050404;28;20036;-40
2023/02/16 02:02:24;;;;;;;39.95;21.05;;;4.90;99.90;;;;;;5049998;28;20020;-40
2023/02/16 02:08:00;;;;;;;42.47;21.90;;;4.90;99.90;;;;;;5049725;28;20032;-40
2023/02/16 02:10:49;;;;;;;43.33;22.92;;;4.90;99.90;;;;;;5050122;28;20033;-40
2023/02/16 02:13:38;;;;;;;41.50;22.67;;;4.80;99.90;;;;;;5050080;28;20202;-40
2023/02/16 02:16:05;;;;;;;46.03;23.42;;;4.80;99.90;;;;;;5049972;28;20108;-40
2023/02/16 02:18:30;;;;;;;44.70;22.63;;;4.80;99.90;;;;;;5065411;28;20244;-41
2023/02/16 02:24:19;;;;;;;;;;;4.70;99.90;;;;;;5050487;28;20067;-40
2023/02/16 02:26:44;;;;;;;41.45;22.60;;;4.70;99.90;;;;;;5065227;28;19905;-40
2023/02/16 02:29:36;;;;;;;47.15;25.00;;;4.60;99.90;;;;;;5049723;28;20067;-41
2023/02/16 02:32:28;;;;;;;45.40;24.60;;;4.60;99.90;;;;;;5049573;28;20391;-41
2023/02/16 02:35:09;;;;;;;46.05;24.45;;;4.60;99.90;;;;;;5049670;28;20017;-40
2023/02/16 02:37:56;;;;;;;48.05;25.30;;;4.60;99.90;;;;;;5047916;28;20024;-40
2023/02/16 02:40:40;;;;;;;51.38;26.77;;;4.60;99.90;;;;;;5065022;28;20029;-40
2023/02/16 02:43:09;;;;;;;52.05;25.13;;;4.50;99.90;;;;;;5049314;28;20439;-40
2023/02/16 02:45:48;;;;;;;43.80;23.80;;;4.50;99.90;;;;;;5049651;28;20031;-40
2023/02/16 02:48:14;;;;;;;50.92;25.88;;;4.50;99.90;;;;;;5049250;28;20021;-40
2023/02/16 02:53:42;;;;;;;51.22;25.90;;;4.50;99.90;;;;;;5049522;28;20040;-42
2023/02/16 03:01:51;;;;;;;51.42;27.92;;;4.50;99.90;;;;;;5048912;28;20062;-42
2023/02/16 03:04:21;;;;;;;54.80;30.08;;;4.50;99.90;;;;;;5049070;28;20063;-41
2023/02/16 03:06:51;;;;;;;55.28;29.35;;;4.50;99.90;;;;;;5048591;28;20021;-41
2023/02/16 03:09:17;;;;;;;41.97;20.77;;;4.50;99.90;;;;;;5048712;28;20112;-43
2023/02/16 03:14:33;;;;;;;66.88;30.10;;;4.50;99.90;;;;;;5049227;28;20082;-41
2023/02/16 03:31:21;;;;;;;62.90;30.75;;;4.70;99.90;;;;;;5048381;28;20028;-40
2023/02/16 03:33:53;;;;;;;60.90;30.95;;;4.60;99.90;;;;;;5048391;28;20127;-40
2023/02/16 03:36:22;;;;;;;67.93;32.15;;;4.70;99.90;;;;;;5064094;28;20028;-41
2023/02/16 03:38:48;;;;;;;60.83;33.13;;;4.60;99.90;;;;;;5048153;28;20021;-40
2023/02/16 03:41:13;;;;;;;60.90;31.10;;;4.60;99.90;;;;;;5045867;28;20031;-40
2023/02/16 03:43:39;;;;;;;63.42;31.25;;;4.60;99.90;;;;;;5048577;28;20499;-40
2023/02/16 03:46:04;;;;;;;62.42;30.88;;;4.60;99.90;;;;;;5048779;28;20391;-40
2023/02/16 03:48:30;;;;;;;57.83;31.52;;;4.60;99.90;;;;;;5048643;28;20531;-40
2023/02/16 03:50:56;;;;;;;56.30;30.73;;;4.60;99.90;;;;;;5048094;28;20029;-40
2023/02/16 03:53:21;;;;;;;63.63;33.10;;;4.60;99.90;;;;;;5048160;28;20055;-41
2023/02/16 03:55:47;;;;;;;61.30;31.42;;;4.60;99.90;;;;;;5048672;28;20423;-40
2023/02/16 03:58:20;;;;;;;65.45;32.60;;;4.60;99.90;;;;;;5048432;28;20021;-40
2023/02/16 04:00:45;;;;;;;59.35;32.08;;;4.50;99.90;;;;;;5048218;28;20104;-40
2023/02/16 04:03:12;;;;;;;67.50;34.08;;;4.50;99.90;;;;;;5047867;28;20121;-40
2023/02/16 04:05:38;;;;;;;69.72;32.63;;;4.50;99.90;;;;;;5048395;28;20044;-40
2023/02/16 04:08:04;;;;;;;66.55;33.05;;;4.50;99.90;;;;;;5046754;28;20013;-41
2023/02/16 04:10:30;;;;;;;70.13;32.83;;;4.50;99.90;;;;;;5048777;28;20037;-40
2023/02/16 04:12:55;;;;;;;69.53;32.25;;;4.50;99.90;;;;;;5046605;28;20027;-40
2023/02/16 04:15:25;;;;;;;68.05;32.42;;;4.50;99.90;;;;;;5048609;28;20664;-40
2023/02/16 04:17:50;;;;;;;64.07;33.25;;;4.50;99.90;;;;;;5064038;28;20025;-40
2023/02/16 04:20:18;;;;;;;65.78;34.80;;;4.50;99.90;;;;;;5048253;28;20385;-40
2023/02/16 04:22:45;;;;;;;76.90;36.38;;;4.50;99.90;;;;;;5046468;28;20388;-40
2023/02/16 04:25:11;;;;;;;68.82;34.13;;;4.60;99.90;;;;;;5048281;28;20029;-40
2023/02/16 04:27:38;;;;;;;66.82;34.35;;;4.60;99.90;;;;;;5048180;28;20025;-40
2023/02/16 04:30:05;;;;;;;65.90;34.75;;;4.60;99.90;;;;;;5048316;28;20067;-40
2023/02/16 04:32:30;;;;;;;65.88;34.47;;;4.60;99.90;;;;;;5063023;28;20488;-40
2023/02/16 04:34:56;;;;;;;68.60;35.38;;;4.60;99.90;;;;;;5047060;28;20056;-40
2023/02/16 04:37:21;;;;;;;72.32;35.17;;;4.60;99.90;;;;;;5047990;28;20026;-40
2023/02/16 04:39:47;;;;;;;73.75;35.17;;;4.60;99.90;;;;;;5046991;28;20484;-40
2023/02/16 04:42:12;;;;;;;65.15;34.00;;;4.60;99.90;;;;;;5047552;28;20067;-39
2023/02/16 04:44:38;;;;;;;64.88;33.95;;;4.60;99.90;;;;;;5048131;28;20029;-40
2023/02/16 04:47:03;;;;;;;65.63;34.25;;;4.50;99.90;;;;;;5051664;28;20025;-40
2023/02/16 04:49:29;;;;;;;69.80;34.08;;;4.50;99.90;;;;;;5051921;28;20059;-40
2023/02/16 04:51:55;;;;;;;64.85;34.00;;;4.40;99.90;;;;;;5051249;28;20025;-40
2023/02/16 04:54:20;;;;;;;69.63;34.95;;;4.40;99.90;;;;;;5051253;28;20024;-40
2023/02/16 04:56:47;;;;;;;66.30;34.20;;;4.40;99.90;;;;;;5051642;28;20032;-40
2023/02/16 04:59:14;;;;;;;68.63;34.63;;;4.30;99.90;;;;;;5051451;28;20035;-40
2023/02/16 05:01:40;;;;;;;71.97;35.45;;;4.20;99.90;;;;;;5051045;28;20071;-40
2023/02/16 05:04:08;;;;;;;66.25;34.08;;;4.20;99.90;;;;;;5051022;28;20029;-40
2023/02/16 05:06:34;;;;;;;71.90;34.15;;;4.10;99.90;;;;;;5066784;28;20025;-40
2023/02/16 05:09:00;;;;;;;65.85;34.30;;;4.10;99.90;;;;;;5050748;28;20021;-40
2023/02/16 05:14:40;;;;;;;67.05;34.75;;;4.10;99.90;;;;;;5052674;28;20514;-40
2023/02/16 05:17:13;;;;;;;75.32;34.05;;;4.00;99.90;;;;;;5052280;28;20036;-40
2023/02/16 05:19:39;;;;;;;65.78;32.10;;;3.90;99.90;;;;;;5052369;28;20115;-40
2023/02/16 05:22:05;;;;;;;66.07;32.80;;;3.90;99.90;;;;;;5051853;28;20536;-40
2023/02/16 05:24:31;;;;;;;67.07;33.13;;;3.90;99.90;;;;;;5051818;28;20033;-41
2023/02/16 05:26:56;;;;;;;61.40;32.58;;;3.80;99.90;;;;;;5051946;28;20595;-41
2023/02/16 05:29:22;;;;;;;67.28;33.83;;;3.80;99.90;;;;;;5051963;28;20025;-41
2023/02/16 05:31:48;;;;;;;67.57;34.70;;;3.80;99.90;;;;;;5051725;28;20031;-42
2023/02/16 05:34:13;;;;;;;66.65;33.50;;;3.80;99.90;;;;;;5052110;28;20540;-41
2023/02/16 05:36:39;;;;;;;74.28;34.13;;;3.80;99.90;;;;;;5050896;28;20040;-41
2023/02/16 05:39:04;;;;;;;72.40;34.25;;;3.80;99.90;;;;;;5050425;28;20107;-42
2023/02/16 05:41:30;;;;;;;72.50;35.10;;;3.80;99.90;;;;;;5050185;28;20021;-41
2023/02/16 05:43:58;;;;;;;71.43;33.53;;;3.80;99.90;;;;;;5050213;28;20108;-43
2023/02/16 05:46:25;;;;;;;72.55;36.08;;;3.80;99.90;;;;;;5065571;28;20025;-42
2023/02/16 05:48:51;;;;;;;66.88;34.38;;;3.80;99.90;;;;;;5050283;28;20052;-41
2023/02/16 05:51:16;;;;;;;70.13;33.65;;;3.80;99.90;;;;;;5050056;28;20301;-44
2023/02/16 05:53:42;;;;;;;72.85;36.22;;;3.80;99.90;;;;;;5050102;28;20032;-42
2023/02/16 05:56:08;;;;;;;68.90;33.05;;;3.90;99.90;;;;;;5050569;28;20491;-42
2023/02/16 05:58:34;;;;;;;69.50;33.28;;;3.90;99.90;;;;;;5049821;28;20380;-42
2023/02/16 06:00:59;;;;;;;70.35;35.67;;;3.90;99.90;;;;;;5065161;28;20017;-42
2023/02/16 06:03:25;;;;;;;69.75;34.15;;;3.90;99.90;;;;;;5050049;28;20024;-42
2023/02/16 06:05:56;;;;;;;71.80;34.05;;;3.90;99.90;;;;;;5064667;28;20029;-41
2023/02/16 06:08:22;;;;;;;69.35;33.03;;;3.90;99.90;;;;;;5049599;28;20423;-41
2023/02/16 06:10:49;;;;;;;67.78;32.35;;;4.00;99.90;;;;;;5049650;28;20043;-41
2023/02/16 06:13:15;;;;;;;68.00;33.08;;;4.00;99.90;;;;;;5049887;28;20029;-42
2023/02/16 06:15:41;;;;;;;73.85;35.00;;;4.00;99.90;;;;;;5047626;28;20638;-41
2023/02/16 06:18:06;;;;;;;64.53;32.15;;;4.00;99.90;;;;;;5049595;28;20036;-42
2023/02/16 06:20:32;;;;;;;64.95;32.60;;;4.10;99.90;;;;;;5052390;28;20221;-42
2023/02/16 06:22:57;;;;;;;66.63;32.55;;;4.00;99.90;;;;;;5052207;28;20091;-42
2023/02/16 06:25:23;;;;;;;66.43;33.58;;;4.10;99.90;;;;;;5049635;28;20119;-41
2023/02/16 06:27:49;;;;;;;65.47;30.48;;;4.10;99.90;;;;;;5065035;28;20059;-41
2023/02/16 06:30:15;;;;;;;60.65;31.48;;;4.10;99.90;;;;;;5049183;28;20025;-43
2023/02/16 06:32:40;;;;;;;67.85;35.15;;;4.10;99.90;;;;;;5048784;28;20496;-42
2023/02/16 06:35:06;;;;;;;71.82;34.05;;;4.10;99.90;;;;;;5064511;28;20039;-42
2023/02/16 06:37:32;;;;;;;66.13;33.35;;;4.20;99.90;;;;;;5049344;28;20025;-41
2023/02/16 06:39:57;;;;;;;71.63;33.72;;;4.20;99.90;;;;;;5064530;28;20025;-41
2023/02/16 06:42:23;;;;;;;65.32;32.95;;;4.20;99.90;;;;;;5048672;28;20033;-42
2023/02/16 06:44:48;;;;;;;71.05;35.22;;;4.20;99.90;;;;;;5049582;28;20514;-41
2023/02/16 06:47:14;;;;;;;68.57;33.25;;;4.20;99.90;;;;;;5049552;28;20029;-41
2023/02/16 06:49:39;;;;;;;62.58;33.50;;;4.20;99.90;;;;;;5049227;28;20017;-41
2023/02/16 06:52:06;;;;;;;66.93;32.83;;;4.20;99.90;;;;;;5048709;28;20052;-41
2023/02/16 06:54:31;;;;;;;70.75;33.40;;;4.20;99.90;;;;;;5049056;28;20032;-42
2023/02/16 06:56:57;;;;;;;68.10;32.20;;;4.30;99.90;;;;;;5064574;28;20025;-41
2023/02/16 06:59:22;;;;;;;67.50;32.65;;;4.30;99.90;;;;;;5049545;28;20052;-47
2023/02/16 07:01:48;;;;;;;73.28;33.85;;;4.40;99.90;;;;;;5049036;28;20404;-46
2023/02/16 07:04:14;;;;;;;64.32;32.47;;;4.50;99.90;;;;;;5049357;28;20025;-46
2023/02/16 07:06:40;;;;;;;61.95;31.83;;;4.50;99.90;;;;;;5049490;28;20515;-47
2023/02/16 07:09:06;;;;;;;58.80;30.63;;;4.50;99.90;;;;;;5049293;28;20017;-47
2023/02/16 07:11:31;;;;;;;66.32;31.80;;;4.60;99.90;;;;;;5049194;28;20023;-47
2023/02/16 07:13:57;;;;;;;60.38;29.63;;;4.70;99.90;;;;;;5042583;28;20108;-46
2023/02/16 07:16:23;;;;;;;62.83;30.55;;;4.70;99.90;;;;;;5067415;28;20036;-46
2023/02/16 07:18:49;;;;;;;60.50;31.35;;;4.80;99.90;;;;;;5068110;28;20024;-47
2023/02/16 07:21:15;;;;;;;59.42;29.50;;;4.80;99.90;;;;;;5050603;28;20025;-47
2023/02/16 07:23:41;;;;;;;61.03;30.67;;;4.90;99.90;;;;;;5049928;28;20029;-47
2023/02/16 07:26:06;;;;;;;59.38;29.65;;;4.90;99.90;;;;;;5048538;28;20096;-48
2023/02/16 07:28:32;;;;;;;58.63;28.65;;;5.00;99.90;;;;;;5048423;28;20029;-48
2023/02/16 07:30:57;;;;;;;55.78;29.52;;;5.00;99.90;;;;;;5047708;28;20447;-49
2023/02/16 07:33:23;;;;;;;58.22;31.05;;;5.00;99.90;;;;;;5047597;28;20017;-47
2023/02/16 07:35:49;;;;;;;56.65;30.13;;;5.10;99.90;;;;;;5048197;28;20037;-48
2023/02/16 07:38:15;;;;;;;55.20;27.63;;;5.10;99.90;;;;;;5048237;28;20017;-48
2023/02/16 07:40:40;;;;;;;55.75;28.60;;;5.10;99.90;;;;;;5048082;28;20090;-48
2023/02/16 07:43:06;;;;;;;53.60;28.35;;;5.10;99.90;;;;;;5048034;28;20025;-47
2023/02/16 07:45:32;;;;;;;56.05;27.95;;;5.20;99.90;;;;;;5048578;28;20032;-47
2023/02/16 07:47:59;;;;;;;58.85;29.00;;;5.20;99.90;;;;;;5048121;28;20035;-47
2023/02/16 07:50:25;;;;;;;51.83;29.05;;;5.30;99.90;;;;;;5048361;28;20021;-47
2023/02/16 07:52:51;;;;;;;54.85;27.65;;;5.30;99.90;;;;;;5047005;28;20499;-47
2023/02/16 07:55:16;;;;;;;58.15;28.45;;;5.30;99.90;;;;;;5048281;28;20036;-47
2023/02/16 07:57:42;;;;;;;61.03;28.92;;;5.30;99.90;;;;;;5048184;28;20031;-47
2023/02/16 08:00:09;;;;;;;55.28;28.80;;;5.30;99.90;;;;;;5048372;28;20055;-47
2023/02/16 08:02:34;;;;;;;59.38;29.67;;;5.40;99.90;;;;;;5047734;28;20029;-48
2023/02/16 08:05:00;;;;;;;54.60;28.88;;;5.40;99.90;;;;;;5047336;28;20040;-47
2023/02/16 08:07:26;;;;;;;58.75;27.38;;;5.40;99.90;;;;;;5058459;28;20438;-48
2023/02/16 08:09:52;;;;;;;52.38;28.08;;;5.50;99.90;;;;;;5068078;28;20020;-47
2023/02/16 08:12:18;;;;;;;57.50;28.65;;;5.50;99.90;;;;;;5051993;28;20351;-49
2023/02/16 08:14:47;;;;;;;56.03;29.30;;;5.50;99.90;;;;;;5044046;28;20044;-48
2023/02/16 08:17:13;;;;;;;54.53;27.50;;;5.50;99.90;;;;;;5032535;28;20084;-48
2023/02/16 08:19:39;;;;;;;55.95;28.73;;;5.50;99.90;;;;;;5031924;28;20048;-49
2023/02/16 08:22:06;;;;;;;55.35;28.52;;;5.60;99.90;;;;;;5051625;28;20032;-48
2023/02/16 08:24:32;;;;;;;58.05;28.70;;;5.60;99.90;;;;;;5067244;28;20033;-47
2023/02/16 08:26:59;;;;;;;60.78;28.05;;;5.70;99.90;;;;;;5050395;28;20048;-49
2023/02/16 08:29:25;;;;;;;60.10;28.85;;;5.80;99.90;;;;;;5051924;28;20530;-48
2023/02/16 08:31:54;;;;;;;59.72;29.27;;;5.80;99.90;;;;;;5051223;28;20025;-47
2023/02/16 08:34:20;;;;;;;55.45;27.77;;;5.90;99.90;;;;;;5051903;28;20027;-47
2023/02/16 08:36:52;;;;;;;49.28;26.35;;;5.90;99.90;;;;;;5051893;28;20291;-47
2023/02/16 08:39:19;;;;;;;48.45;25.80;;;6.00;99.90;;;;;;5051504;28;20021;-50
2023/02/16 08:41:47;;;;;;;46.10;25.10;;;6.20;99.90;;;;;;5050470;28;20041;-47
2023/02/16 08:44:15;;;;;;;48.72;25.88;;;6.20;99.90;;;;;;5048465;28;20021;-46
2023/02/16 08:46:43;;;;;;;53.22;27.20;;;6.30;99.90;;;;;;5051135;28;20732;-46
2023/02/16 08:49:10;;;;;;;50.42;28.08;;;6.40;99.90;;;;;;5051170;28;20024;-46
2023/02/16 08:51:40;;;;;;;51.13;28.27;;;6.50;99.90;;;;;;5050835;28;20021;-46
2023/02/16 08:54:07;;;;;;;51.22;26.95;;;6.60;99.90;;;;;;5052158;28;20017;-47
2023/02/16 08:56:33;;;;;;;47.72;26.42;;;6.60;99.90;;;;;;5063259;28;20051;-47
2023/02/16 08:58:59;;;;;;;49.28;26.48;;;6.70;99.90;;;;;;5050509;28;20100;-46
2023/02/16 09:01:25;;;;;;;49.58;25.65;;;6.70;99.90;;;;;;5050093;28;20360;-46
2023/02/16 09:03:51;;;;;;;51.78;26.38;;;6.80;99.90;;;;;;5050568;28;20029;-46
2023/02/16 09:06:21;;;;;;;46.33;25.67;;;6.90;99.90;;;;;;5051191;28;20021;-51
2023/02/16 09:08:55;;;;;;;49.67;26.73;;;7.00;99.90;;;;;;5050639;28;20142;-46
2023/02/16 09:11:22;;;;;;;49.08;27.13;;;7.10;99.90;;;;;;5050488;28;20335;-47
2023/02/16 09:13:49;;;;;;;43.83;26.05;;;7.10;99.90;;;;;;5050387;28;20025;-40
2023/02/16 09:16:17;;;;;;;48.40;27.98;;;7.40;99.90;;;;;;5050812;28;20101;-40
2023/02/16 09:18:46;;;;;;;46.42;26.52;;;7.30;99.90;;;;;;5050811;28;20547;-41
2023/02/16 09:21:17;;;;;;;45.30;25.80;;;7.50;99.90;;;;;;5065268;28;20124;-41
2023/02/16 09:23:46;;;;;;;;;;;7.60;99.90;;;;;;5051117;28;20017;-46
2023/02/16 09:26:12;;;;;;;39.38;23.55;;;7.60;99.90;;;;;;5066172;28;19908;-46
2023/02/16 09:28:39;;;;;;;44.05;25.38;;;7.80;99.90;;;;;;5050831;28;20552;-40
2023/02/16 09:31:24;;;;;;;45.30;24.55;;;8.00;99.90;;;;;;5051285;28;20024;-47
2023/02/16 09:33:52;;;;;;;44.00;24.85;;;8.10;99.90;;;;;;5066094;28;20056;-41
2023/02/16 09:36:18;;;;;;;46.85;27.40;;;8.20;99.90;;;;;;5050705;28;20021;-48
2023/02/16 09:38:46;;;;;;;46.35;25.88;;;8.30;99.90;;;;;;5065806;28;20028;-47
2023/02/16 09:41:54;;;;;;;47.25;25.73;;;8.40;99.90;;;;;;5050011;28;20021;-41
2023/02/16 09:44:28;;;;;;;42.80;24.70;;;8.80;99.90;;;;;;5019780;28;20037;-47
2023/02/16 09:46:57;;;;;;;44.30;25.38;;;10.10;99.90;;;;;;5063488;28;20048;-41
2023/02/16 09:49:31;;;;;;;45.78;26.23;;;11.50;97.40;;;;;;5030994;28;20530;-47
2023/02/16 09:52:25;;;;;;;36.38;24.38;;;12.70;94.40;;;;;;5049558;28;20041;-46
2023/02/16 09:54:56;;;;;;;41.78;26.30;;;14.00;91.20;;;;;;5049996;28;20017;-40
2023/02/16 09:57:55;;;;;;;37.78;24.05;;;14.60;86.40;;;;;;5050758;28;20033;-47
2023/02/16 10:00:34;;;;;;;37.17;25.25;;;15.20;81.70;;;;;;5048516;28;20021;-51
2023/02/16 10:03:31;;;;;;;27.98;21.05;;;16.50;78.20;;;;;;5064666;28;20488;-41
2023/02/16 10:06:30;;;;;;;33.10;22.92;;;17.40;72.20;;;;;;5049868;28;20039;-42
2023/02/16 10:09:01;;;;;;;38.65;23.50;;;17.30;70.40;;;;;;5063357;28;20021;-48
2023/02/16 10:11:47;;;;;;;30.45;22.75;;;18.50;68.70;;;;;;5049346;28;20500;-47
2023/02/16 10:14:40;;;;;;;28.95;22.40;;;19.00;64.90;;;;;;5066206;28;20130;-46
2023/02/16 10:17:27;;;;;;;25.65;19.73;;;19.80;64.60;;;;;;5048826;28;20081;-46
2023/02/16 10:19:59;;;;;;;32.53;23.10;;;19.90;62.90;;;;;;5064462;28;20069;-46
2023/02/16 10:22:56;;;;;;;30.40;22.67;;;19.00;63.10;;;;;;5048047;28;20047;-46
2023/02/16 10:25:36;;;;;;;36.33;26.20;;;18.10;61.90;;;;;;5050980;28;20063;-45
2023/02/16 10:28:11;;;;;;;35.90;26.10;;;17.20;64.40;;;;;;5051141;28;20040;-46
2023/02/16 10:30:38;;;;;;;31.88;21.13;;;16.80;67.10;;;;;;5051326;28;20029;-47
2023/02/16 10:33:11;;;;;;;35.70;23.67;;;17.40;66.10;;;;;;5066379;28;20013;-47
2023/02/16 10:35:51;;;;;;;35.25;22.85;;;17.20;65.60;;;;;;5047292;28;20721;-46
2023/02/16 10:38:41;;;;;;;33.05;23.48;;;17.50;65.40;;;;;;5049275;28;20029;-47
2023/02/16 10:41:35;;;;;;;36.83;24.50;;;16.10;67.60;;;;;;5048382;28;20021;-46
2023/02/16 10:44:14;;;;;;;33.85;22.90;;;15.30;70.50;;;;;;5044720;28;20380;-48
2023/02/16 10:46:45;;;;;;;40.65;25.70;;;15.00;71.40;;;;;;5047495;28;20398;-47
2023/02/16 10:49:13;;;;;;;37.83;25.27;;;14.30;74.40;;;;;;5049917;28;20379;-46
2023/02/16 10:51:39;;;;;;;32.90;22.25;;;14.10;74.30;;;;;;5045281;28;20024;-46
2023/02/16 10:54:23;;;;;;;33.42;23.92;;;14.20;75.00;;;;;;5049541;28;20490;-47
2023/02/16 10:56:53;;;;;;;38.28;25.00;;;13.90;74.90;;;;;;5045770;28;20140;-47
2023/02/16 10:59:22;;;;;;;35.70;23.67;;;14.20;75.20;;;;;;5046756;28;20396;-47
2023/02/16 11:01:57;;;;;;;41.13;24.83;;;14.60;74.90;;;;;;5048887;28;20400;-47
2023/02/16 11:04:35;;;;;;;38.90;25.35;;;14.80;73.20;;;;;;5047205;28;20021;-42
2023/02/16 11:07:07;;;;;;;35.42;24.55;;;15.60;74.00;;;;;;5054653;28;20028;-41
2023/02/16 11:09:34;;;;;;;36.92;24.90;;;15.60;72.90;;;;;;5046623;28;20380;-41
2023/02/16 11:12:00;;;;;;;34.92;24.42;;;14.90;72.10;;;;;;5063456;28;20021;-41
2023/02/16 11:14:30;;;;;;;39.72;23.67;;;14.40;74.10;;;;;;5048982;28;20048;-40
2023/02/16 11:17:07;;;;;;;38.95;24.65;;;14.10;76.50;;;;;;5046801;28;20013;-41
2023/02/16 11:19:34;;;;;;;45.40;26.17;;;13.60;76.20;;;;;;5046155;28;20118;-45
2023/02/16 11:22:01;;;;;;;40.20;25.10;;;13.10;78.00;;;;;;5047721;28;20476;-40
2023/02/16 11:24:28;;;;;;;39.33;26.00;;;12.60;79.90;;;;;;5047311;28;20500;-41
2023/02/16 11:27:04;;;;;;;43.95;25.55;;;12.30;81.10;;;;;;5048651;28;20029;-40
2023/02/16 11:29:30;;;;;;;41.80;25.20;;;11.70;82.90;;;;;;5048525;28;20013;-40
2023/02/16 11:31:56;;;;;;;43.38;25.95;;;11.30;85.70;;;;;;5048014;28;20376;-40
2023/02/16 11:34:35;;;;;;;37.72;23.88;;;11.20;85.90;;;;;;5048777;28;20028;-41
2023/02/16 11:37:12;;;;;;;41.47;24.98;;;11.20;86.90;;;;;;5048750;28;20067;-40
2023/02/16 11:39:40;;;;;;;44.78;27.10;;;11.20;87.60;;;;;;5048307;28;20027;-40
2023/02/16 11:42:27;;;;;;;41.50;24.70;;;11.00;87.60;;;;;;5063215;28;20033;-41
2023/02/16 11:44:56;;;;;;;43.20;25.67;;;10.90;89.40;;;;;;5048469;28;20021;-41
2023/02/16 11:47:21;;;;;;;43.50;26.23;;;10.60;90.00;;;;;;5048751;28;20028;-42
2023/02/16 11:49:48;;;;;;;44.72;25.10;;;10.10;90.40;;;;;;5048729;28;20028;-40
2023/02/16 11:52:28;;;;;;;41.47;25.05;;;9.70;91.60;;;;;;5047580;28;20040;-42
2023/02/16 11:54:56;;;;;;;46.10;26.27;;;9.80;92.30;;;;;;5048122;28;20029;-41
2023/02/16 11:57:24;;;;;;;44.03;25.52;;;9.70;93.30;;;;;;5052423;28;20017;-41
2023/02/16 11:59:50;;;;;;;40.28;24.17;;;9.70;93.70;;;;;;5052515;28;20028;-40
2023/02/16 12:02:15;;;;;;;51.15;27.40;;;9.70;94.60;;;;;;5052193;28;20021;-41
2023/02/16 12:04:53;;;;;;;43.42;25.88;;;9.80;95.10;;;;;;5052823;28;20071;-40
2023/02/16 12:07:27;;;;;;;45.08;25.63;;;9.80;96.00;;;;;;5050413;28;20021;-41
2023/02/16 12:10:29;;;;;;;42.00;25.80;;;9.80;96.10;;;;;;5051826;28;20017;-40
2023/02/16 12:13:05;;;;;;;44.78;25.85;;;9.80;95.30;;;;;;5049129;28;20024;-40
2023/02/16 12:15:59;;;;;;;43.08;26.20;;;10.10;95.10;;;;;;5048178;28;20298;-41
2023/02/16 12:18:42;;;;;;;46.70;23.85;;;10.00;95.80;;;;;;5035036;28;20021;-40
2023/02/16 12:21:28;;;;;;;42.08;25.42;;;10.30;96.00;;;;;;5042155;28;20042;-40
2023/02/16 12:24:26;;;;;;;40.10;25.15;;;10.60;95.30;;;;;;5042268;28;20056;-40
2023/02/16 12:26:58;;;;;;;45.40;26.40;;;11.20;94.80;;;;;;5052048;28;20021;-40
2023/02/16 12:29:26;;;;;;;41.05;24.02;;;11.60;92.80;;;;;;5030800;28;20485;-40
2023/02/16 12:32:18;;;;;;;39.97;25.08;;;12.00;92.90;;;;;;5046000;28;20290;-40
2023/02/16 12:34:53;;;;;;;37.83;24.40;;;12.00;92.00;;;;;;5042731;28;20036;-40
2023/02/16 12:38:15;;;;;;;44.45;25.17;;;11.90;92.10;;;;;;5039860;28;20086;-40
2023/02/16 12:40:53;;;;;;;43.47;25.77;;;11.50;91.90;;;;;;4979661;28;20170;-40
2023/02/16 12:43:21;;;;;;;44.60;25.67;;;11.10;92.70;;;;;;4994319;28;20060;-40
2023/02/16 12:45:48;;;;;;;45.47;26.27;;;11.20;93.10;;;;;;5022519;28;20037;-40
2023/02/16 12:48:48;;;;;;;40.05;24.73;;;11.70;92.20;;;;;;5050388;28;20083;-39
2023/02/16 12:51:19;;;;;;;42.35;24.48;;;11.60;91.50;;;;;;5062781;28;20027;-40
2023/02/16 12:54:11;;;;;;;44.17;25.40;;;11.80;92.30;;;;;;5047092;28;20029;-40
2023/02/16 12:56:49;;;;;;;41.85;25.45;;;11.60;91.30;;;;;;5057222;28;20025;-39
2023/02/16 12:59:16;;;;;;;41.00;24.63;;;11.20;92.20;;;;;;5046847;28;20067;-39
2023/02/16 13:01:45;;;;;;;41.47;25.17;;;10.90;92.70;;;;;;5041455;28;20572;-39
2023/02/16 13:04:46;;;;;;;43.03;25.80;;;10.90;93.30;;;;;;5046223;28;20514;-40
2023/02/16 13:07:21;;;;;;;;;;;10.50;93.80;;;;;;5049537;28;20023;-39
2023/02/16 13:10:02;;;;;;;45.13;25.83;;;10.60;94.50;;;;;;5042250;28;20147;-39
2023/02/16 13:12:33;;;;;;;39.80;23.95;;;10.60;93.80;;;;;;5041519;28;20015;-39
2023/02/16 13:15:06;;;;;;;42.13;24.88;;;10.50;94.60;;;;;;5046294;28;20029;-39
2023/02/16 13:17:54;;;;;;;43.30;26.48;;;10.60;94.90;;;;;;5046956;28;20563;-39
2023/02/16 13:20:22;;;;;;;38.95;24.35;;;10.60;94.90;;;;;;5049820;28;20052;-40
2023/02/16 13:22:54;;;;;;;42.53;23.88;;;10.40;95.10;;;;;;5049937;28;20017;-40
2023/02/16 13:25:41;;;;;;;41.88;25.23;;;10.40;95.40;;;;;;5050692;28;20424;-40
2023/02/16 13:28:31;;;;;;;41.78;25.15;;;10.30;95.60;;;;;;5050782;28;20021;-40
2023/02/16 13:31:04;;;;;;;42.63;25.27;;;10.30;96.00;;;;;;5049815;28;20323;-40
2023/02/16 13:33:43;;;;;;;40.72;25.00;;;10.20;96.50;;;;;;5049923;28;20702;-39
2023/02/16 13:36:32;;;;;;;47.85;24.88;;;10.10;97.30;;;;;;5050005;28;20024;-40
2023/02/16 13:39:10;;;;;;;39.78;24.30;;;9.90;97.00;;;;;;5049379;28;20020;-40